Everglades, Florida
Current Conditions -  °F | °C
As of 1:53 PM on Saturday 25 Oct 2014 (Local Time) from KAPF Reporting Station
Few Clouds Few Clouds  
Wind Chill: 82°   Ceiling: Unl
Heat Index: 82°   Visibility: 10mi
Dew Point: 59°   Wind: 7mph
Humidity: 45%   Direction: 340°NNW
Pressure: 29.93"   Gusts: NA
Location:  25.8583°N, 81.3702°W
Report Text: KAPF 251753Z 34006KT 10SM FEW045 28/15 A2993 RMK AO2 SLP135 T02780150 10278 20189 58010
Loading
Personal Weather Stations






























Interactive Weather Map
Tropical Storm Tracking
New forecast layout! Learn more

10-Day Weather Forecast

Advertisements
Track Severe Weather on mobile